sensor_id;sensor_type;location;lat;lon;timestamp;P1;durP1;ratioP1;P2;durP2;ratioP2
68365;SDS011;55283;51.466;5.478;2022-08-01T00:01:30;3.73;;;2.53;;
68365;SDS011;55283;51.466;5.478;2022-08-01T00:03:56;2.93;;;2.40;;
68365;SDS011;55283;51.466;5.478;2022-08-01T00:06:21;4.13;;;2.60;;
68365;SDS011;55283;51.466;5.478;2022-08-01T00:08:47;3.30;;;2.40;;
68365;SDS011;55283;51.466;5.478;2022-08-01T00:11:12;2.80;;;2.30;;
68365;SDS011;55283;51.466;5.478;2022-08-01T00:13:38;2.88;;;2.10;;
68365;SDS011;55283;51.466;5.478;2022-08-01T00:16:05;3.60;;;2.53;;
68365;SDS011;55283;51.466;5.478;2022-08-01T00:18:30;4.00;;;2.38;;
68365;SDS011;55283;51.466;5.478;2022-08-01T00:20:56;3.47;;;2.50;;
68365;SDS011;55283;51.466;5.478;2022-08-01T00:23:21;4.30;;;2.73;;
68365;SDS011;55283;51.466;5.478;2022-08-01T00:25:46;2.85;;;2.20;;
68365;SDS011;55283;51.466;5.478;2022-08-01T00:28:12;2.73;;;2.40;;
68365;SDS011;55283;51.466;5.478;2022-08-01T00:30:41;3.07;;;2.30;;
68365;SDS011;55283;51.466;5.478;2022-08-01T00:33:06;3.00;;;2.45;;
68365;SDS011;55283;51.466;5.478;2022-08-01T00:35:31;3.63;;;2.47;;
68365;SDS011;55283;51.466;5.478;2022-08-01T00:37:57;3.27;;;2.30;;
68365;SDS011;55283;51.466;5.478;2022-08-01T00:40:22;2.60;;;2.30;;
68365;SDS011;55283;51.466;5.478;2022-08-01T00:42:48;4.00;;;2.50;;
68365;SDS011;55283;51.466;5.478;2022-08-01T00:45:13;2.83;;;2.27;;
68365;SDS011;55283;51.466;5.478;2022-08-01T00:47:41;3.20;;;2.40;;
68365;SDS011;55283;51.466;5.478;2022-08-01T00:50:07;3.78;;;2.20;;
68365;SDS011;55283;51.466;5.478;2022-08-01T00:52:34;2.92;;;2.33;;
68365;SDS011;55283;51.466;5.478;2022-08-01T00:55:00;4.13;;;2.30;;
68365;SDS011;55283;51.466;5.478;2022-08-01T00:57:28;3.00;;;2.30;;
68365;SDS011;55283;51.466;5.478;2022-08-01T00:59:54;2.53;;;2.17;;
68365;SDS011;55283;51.466;5.478;2022-08-01T01:02:19;3.73;;;2.40;;
68365;SDS011;55283;51.466;5.478;2022-08-01T01:04:45;3.70;;;2.60;;
68365;SDS011;55283;51.466;5.478;2022-08-01T01:07:19;3.60;;;2.50;;
68365;SDS011;55283;51.466;5.478;2022-08-01T01:15:55;7.40;;;2.53;;
68365;SDS011;55283;51.466;5.478;2022-08-01T01:18:11;3.93;;;2.47;;
68365;SDS011;55283;51.466;5.478;2022-08-01T01:20:58;4.53;;;2.58;;
68365;SDS011;55283;51.466;5.478;2022-08-01T01:26:26;4.50;;;2.73;;
68365;SDS011;55283;51.466;5.478;2022-08-01T01:29:05;4.03;;;2.70;;
68365;SDS011;55283;51.466;5.478;2022-08-01T01:31:40;4.43;;;2.50;;
68365;SDS011;55283;51.466;5.478;2022-08-01T01:34:09;3.97;;;2.70;;
68365;SDS011;55283;51.466;5.478;2022-08-01T01:36:38;4.18;;;2.90;;
68365;SDS011;55283;51.466;5.478;2022-08-01T01:39:04;5.72;;;3.30;;
68365;SDS011;55283;51.466;5.478;2022-08-01T01:41:32;4.47;;;3.00;;
68365;SDS011;55283;51.466;5.478;2022-08-01T01:43:59;4.10;;;3.20;;
68365;SDS011;55283;51.466;5.478;2022-08-01T01:46:26;5.05;;;3.08;;
68365;SDS011;55283;51.466;5.478;2022-08-01T01:48:56;5.78;;;2.90;;
68365;SDS011;55283;51.466;5.478;2022-08-01T01:51:22;4.30;;;3.33;;
68365;SDS011;55283;51.466;5.478;2022-08-01T01:53:51;4.25;;;3.17;;
68365;SDS011;55283;51.466;5.478;2022-08-01T01:56:18;4.65;;;3.00;;
68365;SDS011;55283;51.466;5.478;2022-08-01T01:58:45;4.20;;;3.20;;
68365;SDS011;55283;51.466;5.478;2022-08-01T02:01:19;4.78;;;3.00;;
68365;SDS011;55283;51.466;5.478;2022-08-01T02:03:49;5.80;;;2.83;;
68365;SDS011;55283;51.466;5.478;2022-08-01T02:06:15;5.25;;;3.10;;
68365;SDS011;55283;51.466;5.478;2022-08-01T02:08:41;4.73;;;2.93;;
68365;SDS011;55283;51.466;5.478;2022-08-01T02:11:07;5.47;;;3.28;;
68365;SDS011;55283;51.466;5.478;2022-08-01T02:13:48;4.95;;;2.88;;
68365;SDS011;55283;51.466;5.478;2022-08-01T02:16:16;5.03;;;3.20;;
68365;SDS011;55283;51.466;5.478;2022-08-01T02:18:42;4.95;;;2.75;;
68365;SDS011;55283;51.466;5.478;2022-08-01T02:21:08;3.97;;;2.83;;
68365;SDS011;55283;51.466;5.478;2022-08-01T02:23:37;3.67;;;2.50;;
68365;SDS011;55283;51.466;5.478;2022-08-01T02:26:06;4.32;;;3.00;;
68365;SDS011;55283;51.466;5.478;2022-08-01T02:28:36;3.75;;;2.83;;
68365;SDS011;55283;51.466;5.478;2022-08-01T02:31:13;4.87;;;2.90;;
68365;SDS011;55283;51.466;5.478;2022-08-01T02:33:43;4.03;;;2.90;;
68365;SDS011;55283;51.466;5.478;2022-08-01T02:36:11;4.85;;;2.70;;
68365;SDS011;55283;51.466;5.478;2022-08-01T02:38:40;3.53;;;2.90;;
68365;SDS011;55283;51.466;5.478;2022-08-01T02:41:10;4.03;;;2.75;;
68365;SDS011;55283;51.466;5.478;2022-08-01T02:43:38;4.53;;;2.70;;
68365;SDS011;55283;51.466;5.478;2022-08-01T02:46:08;3.73;;;2.83;;
68365;SDS011;55283;51.466;5.478;2022-08-01T02:48:39;3.25;;;2.70;;
68365;SDS011;55283;51.466;5.478;2022-08-01T02:51:06;3.38;;;2.60;;
68365;SDS011;55283;51.466;5.478;2022-08-01T02:53:34;4.13;;;2.92;;
68365;SDS011;55283;51.466;5.478;2022-08-01T02:56:04;4.53;;;2.83;;
68365;SDS011;55283;51.466;5.478;2022-08-01T02:58:30;3.58;;;2.70;;
68365;SDS011;55283;51.466;5.478;2022-08-01T03:00:58;3.45;;;2.83;;
68365;SDS011;55283;51.466;5.478;2022-08-01T03:03:24;3.93;;;2.80;;
68365;SDS011;55283;51.466;5.478;2022-08-01T03:05:52;5.20;;;3.00;;
68365;SDS011;55283;51.466;5.478;2022-08-01T03:08:18;3.80;;;2.80;;
68365;SDS011;55283;51.466;5.478;2022-08-01T03:10:45;3.97;;;3.00;;
68365;SDS011;55283;51.466;5.478;2022-08-01T03:13:13;4.05;;;2.80;;
68365;SDS011;55283;51.466;5.478;2022-08-01T03:15:40;4.33;;;3.20;;
68365;SDS011;55283;51.466;5.478;2022-08-01T03:18:08;4.10;;;2.97;;
68365;SDS011;55283;51.466;5.478;2022-08-01T03:20:35;4.30;;;2.95;;
68365;SDS011;55283;51.466;5.478;2022-08-01T03:23:03;4.47;;;3.08;;
68365;SDS011;55283;51.466;5.478;2022-08-01T03:25:31;3.80;;;2.83;;
68365;SDS011;55283;51.466;5.478;2022-08-01T03:28:01;4.43;;;2.85;;
68365;SDS011;55283;51.466;5.478;2022-08-01T03:30:28;4.18;;;3.20;;
68365;SDS011;55283;51.466;5.478;2022-08-01T03:32:55;4.27;;;3.30;;
68365;SDS011;55283;51.466;5.478;2022-08-01T03:35:21;3.70;;;2.83;;
68365;SDS011;55283;51.466;5.478;2022-08-01T03:37:53;3.70;;;2.90;;
68365;SDS011;55283;51.466;5.478;2022-08-01T03:40:33;4.93;;;3.30;;
68365;SDS011;55283;51.466;5.478;2022-08-01T03:43:15;3.92;;;3.10;;
68365;SDS011;55283;51.466;5.478;2022-08-01T03:45:46;3.80;;;3.10;;
68365;SDS011;55283;51.466;5.478;2022-08-01T03:48:17;3.95;;;3.20;;
68365;SDS011;55283;51.466;5.478;2022-08-01T03:50:48;4.33;;;3.03;;
68365;SDS011;55283;51.466;5.478;2022-08-01T03:53:16;4.75;;;3.40;;
68365;SDS011;55283;51.466;5.478;2022-08-01T03:55:47;4.82;;;3.80;;
68365;SDS011;55283;51.466;5.478;2022-08-01T03:58:14;5.37;;;3.20;;
68365;SDS011;55283;51.466;5.478;2022-08-01T04:00:40;3.47;;;2.80;;
68365;SDS011;55283;51.466;5.478;2022-08-01T04:03:07;5.53;;;3.20;;
68365;SDS011;55283;51.466;5.478;2022-08-01T04:05:36;5.40;;;3.47;;
68365;SDS011;55283;51.466;5.478;2022-08-01T04:08:02;5.78;;;3.28;;
68365;SDS011;55283;51.466;5.478;2022-08-01T04:10:30;5.10;;;3.37;;
68365;SDS011;55283;51.466;5.478;2022-08-01T04:12:56;3.45;;;3.13;;
68365;SDS011;55283;51.466;5.478;2022-08-01T04:15:21;5.83;;;3.60;;
68365;SDS011;55283;51.466;5.478;2022-08-01T04:17:46;5.50;;;3.63;;
68365;SDS011;55283;51.466;5.478;2022-08-01T04:20:13;4.38;;;3.13;;
68365;SDS011;55283;51.466;5.478;2022-08-01T04:22:41;4.35;;;3.30;;
68365;SDS011;55283;51.466;5.478;2022-08-01T04:25:09;3.57;;;3.17;;
68365;SDS011;55283;51.466;5.478;2022-08-01T04:27:40;5.05;;;3.38;;
68365;SDS011;55283;51.466;5.478;2022-08-01T04:30:09;4.25;;;3.67;;
68365;SDS011;55283;51.466;5.478;2022-08-01T04:32:37;4.13;;;3.37;;
68365;SDS011;55283;51.466;5.478;2022-08-01T04:35:05;4.50;;;3.22;;
68365;SDS011;55283;51.466;5.478;2022-08-01T04:37:35;4.28;;;3.35;;
68365;SDS011;55283;51.466;5.478;2022-08-01T04:40:03;4.07;;;3.00;;
68365;SDS011;55283;51.466;5.478;2022-08-01T04:42:31;4.90;;;3.08;;
68365;SDS011;55283;51.466;5.478;2022-08-01T04:44:58;4.63;;;3.55;;
68365;SDS011;55283;51.466;5.478;2022-08-01T04:47:24;6.03;;;3.90;;
68365;SDS011;55283;51.466;5.478;2022-08-01T04:49:51;8.27;;;3.80;;
68365;SDS011;55283;51.466;5.478;2022-08-01T04:52:16;6.95;;;4.30;;
68365;SDS011;55283;51.466;5.478;2022-08-01T04:54:42;10.10;;;3.90;;
68365;SDS011;55283;51.466;5.478;2022-08-01T04:57:08;4.30;;;3.28;;
68365;SDS011;55283;51.466;5.478;2022-08-01T04:59:35;4.30;;;3.30;;
68365;SDS011;55283;51.466;5.478;2022-08-01T05:02:09;4.80;;;3.30;;
68365;SDS011;55283;51.466;5.478;2022-08-01T05:04:43;5.68;;;3.28;;
68365;SDS011;55283;51.466;5.478;2022-08-01T05:07:09;5.13;;;3.60;;
68365;SDS011;55283;51.466;5.478;2022-08-01T05:09:36;5.78;;;3.20;;
68365;SDS011;55283;51.466;5.478;2022-08-01T05:12:03;5.50;;;3.20;;
68365;SDS011;55283;51.466;5.478;2022-08-01T05:14:30;4.18;;;3.30;;
68365;SDS011;55283;51.466;5.478;2022-08-01T05:16:57;4.00;;;3.27;;
68365;SDS011;55283;51.466;5.478;2022-08-01T05:19:28;5.82;;;3.20;;
68365;SDS011;55283;51.466;5.478;2022-08-01T05:21:58;4.47;;;2.83;;
68365;SDS011;55283;51.466;5.478;2022-08-01T05:24:25;4.53;;;3.40;;
68365;SDS011;55283;51.466;5.478;2022-08-01T05:26:56;3.92;;;3.10;;
68365;SDS011;55283;51.466;5.478;2022-08-01T05:29:22;5.85;;;3.40;;
68365;SDS011;55283;51.466;5.478;2022-08-01T05:31:51;3.90;;;3.00;;
68365;SDS011;55283;51.466;5.478;2022-08-01T05:34:17;7.32;;;3.33;;
68365;SDS011;55283;51.466;5.478;2022-08-01T05:36:44;3.20;;;2.90;;
68365;SDS011;55283;51.466;5.478;2022-08-01T05:39:09;4.83;;;2.90;;
68365;SDS011;55283;51.466;5.478;2022-08-01T05:41:35;5.80;;;3.10;;
68365;SDS011;55283;51.466;5.478;2022-08-01T05:44:04;5.60;;;3.20;;
68365;SDS011;55283;51.466;5.478;2022-08-01T05:46:32;4.60;;;3.03;;
68365;SDS011;55283;51.466;5.478;2022-08-01T05:48:57;5.60;;;3.15;;
68365;SDS011;55283;51.466;5.478;2022-08-01T05:51:23;4.97;;;3.00;;
68365;SDS011;55283;51.466;5.478;2022-08-01T05:53:49;5.47;;;2.88;;
68365;SDS011;55283;51.466;5.478;2022-08-01T05:56:15;5.47;;;3.07;;
68365;SDS011;55283;51.466;5.478;2022-08-01T05:58:40;5.00;;;2.80;;
68365;SDS011;55283;51.466;5.478;2022-08-01T06:01:05;7.33;;;3.20;;
68365;SDS011;55283;51.466;5.478;2022-08-01T06:03:31;4.53;;;3.00;;
68365;SDS011;55283;51.466;5.478;2022-08-01T06:05:58;6.88;;;2.80;;
68365;SDS011;55283;51.466;5.478;2022-08-01T06:08:24;5.43;;;4.03;;
68365;SDS011;55283;51.466;5.478;2022-08-01T06:10:49;5.53;;;4.10;;
68365;SDS011;55283;51.466;5.478;2022-08-01T06:13:14;6.97;;;3.53;;
68365;SDS011;55283;51.466;5.478;2022-08-01T06:15:40;6.87;;;3.87;;
68365;SDS011;55283;51.466;5.478;2022-08-01T06:18:05;8.17;;;3.60;;
68365;SDS011;55283;51.466;5.478;2022-08-01T06:20:31;5.10;;;3.70;;
68365;SDS011;55283;51.466;5.478;2022-08-01T06:22:56;5.10;;;3.30;;
68365;SDS011;55283;51.466;5.478;2022-08-01T06:25:22;6.60;;;2.97;;
68365;SDS011;55283;51.466;5.478;2022-08-01T06:27:50;5.65;;;3.25;;
68365;SDS011;55283;51.466;5.478;2022-08-01T06:30:15;4.23;;;3.10;;
68365;SDS011;55283;51.466;5.478;2022-08-01T06:32:41;4.60;;;3.13;;
68365;SDS011;55283;51.466;5.478;2022-08-01T06:35:10;3.73;;;3.03;;
68365;SDS011;55283;51.466;5.478;2022-08-01T06:37:38;4.93;;;3.08;;
68365;SDS011;55283;51.466;5.478;2022-08-01T06:40:07;5.73;;;3.33;;
68365;SDS011;55283;51.466;5.478;2022-08-01T06:42:34;5.53;;;3.37;;
68365;SDS011;55283;51.466;5.478;2022-08-01T06:45:04;4.32;;;3.42;;
68365;SDS011;55283;51.466;5.478;2022-08-01T06:47:31;5.38;;;3.42;;
68365;SDS011;55283;51.466;5.478;2022-08-01T06:49:59;5.07;;;3.13;;
68365;SDS011;55283;51.466;5.478;2022-08-01T06:52:25;6.40;;;3.30;;
68365;SDS011;55283;51.466;5.478;2022-08-01T06:54:51;5.93;;;3.20;;
68365;SDS011;55283;51.466;5.478;2022-08-01T06:57:16;3.30;;;2.60;;
68365;SDS011;55283;51.466;5.478;2022-08-01T06:59:42;4.30;;;3.03;;
68365;SDS011;55283;51.466;5.478;2022-08-01T07:02:07;5.30;;;2.90;;
68365;SDS011;55283;51.466;5.478;2022-08-01T07:04:33;4.73;;;2.90;;
68365;SDS011;55283;51.466;5.478;2022-08-01T07:06:59;4.53;;;2.83;;
68365;SDS011;55283;51.466;5.478;2022-08-01T07:09:24;3.40;;;2.55;;
68365;SDS011;55283;51.466;5.478;2022-08-01T07:11:50;3.80;;;2.63;;
68365;SDS011;55283;51.466;5.478;2022-08-01T07:14:17;4.13;;;2.80;;
68365;SDS011;55283;51.466;5.478;2022-08-01T07:16:43;4.00;;;2.50;;
68365;SDS011;55283;51.466;5.478;2022-08-01T07:19:09;4.63;;;2.70;;
68365;SDS011;55283;51.466;5.478;2022-08-01T07:21:34;3.43;;;2.30;;
68365;SDS011;55283;51.466;5.478;2022-08-01T07:24:00;3.87;;;2.27;;
68365;SDS011;55283;51.466;5.478;2022-08-01T07:26:25;5.00;;;2.17;;
68365;SDS011;55283;51.466;5.478;2022-08-01T07:28:52;4.55;;;1.90;;
68365;SDS011;55283;51.466;5.478;2022-08-01T07:31:18;3.50;;;2.05;;
68365;SDS011;55283;51.466;5.478;2022-08-01T07:33:44;2.23;;;1.90;;
68365;SDS011;55283;51.466;5.478;2022-08-01T07:36:09;2.90;;;2.00;;
68365;SDS011;55283;51.466;5.478;2022-08-01T07:38:34;4.37;;;1.90;;
68365;SDS011;55283;51.466;5.478;2022-08-01T07:41:00;2.87;;;1.63;;
68365;SDS011;55283;51.466;5.478;2022-08-01T07:43:25;4.73;;;1.80;;
68365;SDS011;55283;51.466;5.478;2022-08-01T07:45:51;1.93;;;1.60;;
68365;SDS011;55283;51.466;5.478;2022-08-01T07:48:16;2.70;;;1.70;;
68365;SDS011;55283;51.466;5.478;2022-08-01T07:50:41;2.73;;;1.50;;
68365;SDS011;55283;51.466;5.478;2022-08-01T07:53:07;2.47;;;1.47;;
68365;SDS011;55283;51.466;5.478;2022-08-01T07:55:35;2.10;;;1.50;;
68365;SDS011;55283;51.466;5.478;2022-08-01T07:58:00;4.13;;;1.67;;
68365;SDS011;55283;51.466;5.478;2022-08-01T08:00:28;3.73;;;1.40;;
68365;SDS011;55283;51.466;5.478;2022-08-01T08:02:53;3.17;;;1.38;;
68365;SDS011;55283;51.466;5.478;2022-08-01T08:05:19;3.20;;;1.30;;
68365;SDS011;55283;51.466;5.478;2022-08-01T08:07:45;3.35;;;1.10;;
68365;SDS011;55283;51.466;5.478;2022-08-01T08:10:10;1.80;;;1.20;;
68365;SDS011;55283;51.466;5.478;2022-08-01T08:12:36;4.95;;;1.10;;
68365;SDS011;55283;51.466;5.478;2022-08-01T08:15:01;1.87;;;1.23;;
68365;SDS011;55283;51.466;5.478;2022-08-01T08:17:30;2.92;;;1.35;;
68365;SDS011;55283;51.466;5.478;2022-08-01T08:19:59;3.20;;;1.30;;
68365;SDS011;55283;51.466;5.478;2022-08-01T08:22:24;2.67;;;1.50;;
68365;SDS011;55283;51.466;5.478;2022-08-01T08:24:49;1.63;;;1.17;;
68365;SDS011;55283;51.466;5.478;2022-08-01T08:27:15;2.57;;;1.23;;
68365;SDS011;55283;51.466;5.478;2022-08-01T08:29:43;1.37;;;1.20;;
68365;SDS011;55283;51.466;5.478;2022-08-01T08:32:09;2.15;;;1.30;;
68365;SDS011;55283;51.466;5.478;2022-08-01T08:34:34;2.07;;;1.37;;
68365;SDS011;55283;51.466;5.478;2022-08-01T08:37:02;2.00;;;1.30;;
68365;SDS011;55283;51.466;5.478;2022-08-01T08:39:28;2.63;;;1.30;;
68365;SDS011;55283;51.466;5.478;2022-08-01T08:41:56;1.77;;;1.48;;
68365;SDS011;55283;51.466;5.478;2022-08-01T08:44:22;1.52;;;1.30;;
68365;SDS011;55283;51.466;5.478;2022-08-01T08:46:49;2.37;;;1.30;;
68365;SDS011;55283;51.466;5.478;2022-08-01T08:49:20;2.25;;;1.50;;
68365;SDS011;55283;51.466;5.478;2022-08-01T08:51:49;1.57;;;1.30;;
68365;SDS011;55283;51.466;5.478;2022-08-01T08:54:16;2.95;;;1.58;;
68365;SDS011;55283;51.466;5.478;2022-08-01T08:56:44;2.20;;;1.13;;
68365;SDS011;55283;51.466;5.478;2022-08-01T08:59:11;1.60;;;1.50;;
68365;SDS011;55283;51.466;5.478;2022-08-01T09:01:38;1.77;;;1.50;;
68365;SDS011;55283;51.466;5.478;2022-08-01T09:04:04;1.42;;;1.27;;
68365;SDS011;55283;51.466;5.478;2022-08-01T09:06:32;1.45;;;1.35;;
68365;SDS011;55283;51.466;5.478;2022-08-01T09:08:58;1.40;;;1.30;;
68365;SDS011;55283;51.466;5.478;2022-08-01T09:11:26;2.05;;;1.50;;
68365;SDS011;55283;51.466;5.478;2022-08-01T09:14:11;1.67;;;1.50;;
68365;SDS011;55283;51.466;5.478;2022-08-01T09:16:41;1.70;;;1.20;;
68365;SDS011;55283;51.466;5.478;2022-08-01T09:21:54;1.95;;;1.40;;
68365;SDS011;55283;51.466;5.478;2022-08-01T09:24:22;1.50;;;1.30;;
68365;SDS011;55283;51.466;5.478;2022-08-01T09:26:49;1.87;;;1.40;;
68365;SDS011;55283;51.466;5.478;2022-08-01T09:29:19;1.30;;;1.20;;
68365;SDS011;55283;51.466;5.478;2022-08-01T09:31:47;1.20;;;1.07;;
68365;SDS011;55283;51.466;5.478;2022-08-01T09:34:15;2.25;;;1.13;;
68365;SDS011;55283;51.466;5.478;2022-08-01T09:36:49;1.30;;;1.20;;
68365;SDS011;55283;51.466;5.478;2022-08-01T09:39:17;1.30;;;1.20;;
68365;SDS011;55283;51.466;5.478;2022-08-01T09:41:43;1.45;;;1.30;;
68365;SDS011;55283;51.466;5.478;2022-08-01T09:44:14;1.40;;;1.30;;
68365;SDS011;55283;51.466;5.478;2022-08-01T09:47:16;1.65;;;1.20;;
68365;SDS011;55283;51.466;5.478;2022-08-01T09:49:35;1.30;;;1.20;;
68365;SDS011;55283;51.466;5.478;2022-08-01T09:52:18;2.83;;;1.30;;
68365;SDS011;55283;51.466;5.478;2022-08-01T09:54:53;1.30;;;1.20;;
68365;SDS011;55283;51.466;5.478;2022-08-01T09:57:23;1.30;;;1.20;;
68365;SDS011;55283;51.466;5.478;2022-08-01T09:59:50;1.27;;;1.17;;
68365;SDS011;55283;51.466;5.478;2022-08-01T10:02:34;1.48;;;1.20;;
68365;SDS011;55283;51.466;5.478;2022-08-01T10:05:05;2.77;;;1.40;;
68365;SDS011;55283;51.466;5.478;2022-08-01T10:07:35;1.75;;;1.40;;
68365;SDS011;55283;51.466;5.478;2022-08-01T10:10:18;1.33;;;1.20;;
68365;SDS011;55283;51.466;5.478;2022-08-01T10:12:43;1.40;;;1.30;;
68365;SDS011;55283;51.466;5.478;2022-08-01T10:15:15;2.22;;;1.20;;
68365;SDS011;55283;51.466;5.478;2022-08-01T10:17:42;1.92;;;1.50;;
68365;SDS011;55283;51.466;5.478;2022-08-01T10:20:12;1.40;;;1.30;;
68365;SDS011;55283;51.466;5.478;2022-08-01T10:22:38;1.35;;;1.17;;
68365;SDS011;55283;51.466;5.478;2022-08-01T10:25:07;1.92;;;1.23;;
68365;SDS011;55283;51.466;5.478;2022-08-01T10:27:34;1.60;;;1.20;;
68365;SDS011;55283;51.466;5.478;2022-08-01T10:30:03;1.33;;;1.20;;
68365;SDS011;55283;51.466;5.478;2022-08-01T10:32:33;2.38;;;1.30;;
68365;SDS011;55283;51.466;5.478;2022-08-01T10:35:00;2.13;;;1.23;;
68365;SDS011;55283;51.466;5.478;2022-08-01T10:37:26;1.95;;;1.10;;
68365;SDS011;55283;51.466;5.478;2022-08-01T10:39:51;1.70;;;1.30;;
68365;SDS011;55283;51.466;5.478;2022-08-01T10:42:21;2.47;;;1.02;;
68365;SDS011;55283;51.466;5.478;2022-08-01T10:44:50;4.70;;;1.20;;
68365;SDS011;55283;51.466;5.478;2022-08-01T10:47:27;1.95;;;1.08;;
68365;SDS011;55283;51.466;5.478;2022-08-01T10:50:17;1.47;;;0.90;;
68365;SDS011;55283;51.466;5.478;2022-08-01T10:53:12;2.08;;;1.10;;
68365;SDS011;55283;51.466;5.478;2022-08-01T10:58:10;1.30;;;1.20;;
68365;SDS011;55283;51.466;5.478;2022-08-01T11:00:36;2.47;;;1.40;;
68365;SDS011;55283;51.466;5.478;2022-08-01T11:03:03;1.80;;;1.60;;
68365;SDS011;55283;51.466;5.478;2022-08-01T11:05:33;1.77;;;1.60;;
68365;SDS011;55283;51.466;5.478;2022-08-01T11:08:03;1.85;;;1.33;;
68365;SDS011;55283;51.466;5.478;2022-08-01T11:10:38;1.53;;;1.40;;
68365;SDS011;55283;51.466;5.478;2022-08-01T11:13:07;3.28;;;1.45;;
68365;SDS011;55283;51.466;5.478;2022-08-01T11:15:36;2.55;;;1.40;;
68365;SDS011;55283;51.466;5.478;2022-08-01T11:18:03;2.20;;;1.30;;
68365;SDS011;55283;51.466;5.478;2022-08-01T11:21:01;1.75;;;1.27;;
68365;SDS011;55283;51.466;5.478;2022-08-01T11:23:29;2.38;;;1.30;;
68365;SDS011;55283;51.466;5.478;2022-08-01T11:28:28;1.53;;;1.30;;
68365;SDS011;55283;51.466;5.478;2022-08-01T11:34:09;2.35;;;1.40;;
68365;SDS011;55283;51.466;5.478;2022-08-01T11:36:16;1.50;;;1.10;;
68365;SDS011;55283;51.466;5.478;2022-08-01T11:38:43;2.05;;;1.27;;
68365;SDS011;55283;51.466;5.478;2022-08-01T11:41:16;2.38;;;1.38;;
68365;SDS011;55283;51.466;5.478;2022-08-01T11:51:58;1.20;;;1.10;;
68365;SDS011;55283;51.466;5.478;2022-08-01T11:54:27;1.60;;;1.20;;
68365;SDS011;55283;51.466;5.478;2022-08-01T11:56:58;1.75;;;1.38;;
68365;SDS011;55283;51.466;5.478;2022-08-01T11:59:25;1.95;;;1.30;;
68365;SDS011;55283;51.466;5.478;2022-08-01T12:01:53;1.60;;;1.10;;
68365;SDS011;55283;51.466;5.478;2022-08-01T12:04:19;2.25;;;1.30;;
68365;SDS011;55283;51.466;5.478;2022-08-01T12:06:46;1.73;;;1.10;;
68365;SDS011;55283;51.466;5.478;2022-08-01T12:09:15;1.47;;;1.17;;
68365;SDS011;55283;51.466;5.478;2022-08-01T12:11:50;2.30;;;1.20;;
68365;SDS011;55283;51.466;5.478;2022-08-01T12:14:19;1.93;;;1.10;;
68365;SDS011;55283;51.466;5.478;2022-08-01T12:16:52;1.13;;;1.00;;
68365;SDS011;55283;51.466;5.478;2022-08-01T12:19:19;3.28;;;1.20;;
68365;SDS011;55283;51.466;5.478;2022-08-01T12:22:04;2.53;;;1.17;;
68365;SDS011;55283;51.466;5.478;2022-08-01T12:24:34;1.73;;;1.20;;
68365;SDS011;55283;51.466;5.478;2022-08-01T12:27:00;1.98;;;1.10;;
68365;SDS011;55283;51.466;5.478;2022-08-01T12:29:33;1.73;;;1.10;;
68365;SDS011;55283;51.466;5.478;2022-08-01T12:32:03;1.48;;;1.00;;
68365;SDS011;55283;51.466;5.478;2022-08-01T12:34:32;1.90;;;1.30;;
68365;SDS011;55283;51.466;5.478;2022-08-01T12:37:00;1.20;;;1.10;;
68365;SDS011;55283;51.466;5.478;2022-08-01T12:39:31;1.60;;;1.30;;
68365;SDS011;55283;51.466;5.478;2022-08-01T12:41:58;1.45;;;1.30;;
68365;SDS011;55283;51.466;5.478;2022-08-01T12:44:27;2.07;;;1.30;;
68365;SDS011;55283;51.466;5.478;2022-08-01T12:46:55;2.00;;;1.20;;
68365;SDS011;55283;51.466;5.478;2022-08-01T12:49:21;1.98;;;1.20;;
68365;SDS011;55283;51.466;5.478;2022-08-01T12:51:47;2.27;;;1.30;;
68365;SDS011;55283;51.466;5.478;2022-08-01T12:54:13;3.08;;;1.50;;
68365;SDS011;55283;51.466;5.478;2022-08-01T12:56:39;1.50;;;1.40;;
68365;SDS011;55283;51.466;5.478;2022-08-01T12:59:23;2.05;;;1.25;;
68365;SDS011;55283;51.466;5.478;2022-08-01T13:01:54;4.00;;;1.50;;
68365;SDS011;55283;51.466;5.478;2022-08-01T13:04:20;2.65;;;1.40;;
68365;SDS011;55283;51.466;5.478;2022-08-01T13:06:47;2.38;;;1.38;;
68365;SDS011;55283;51.466;5.478;2022-08-01T13:09:17;1.47;;;1.30;;
68365;SDS011;55283;51.466;5.478;2022-08-01T13:11:43;3.13;;;1.48;;
68365;SDS011;55283;51.466;5.478;2022-08-01T13:14:08;2.33;;;1.30;;
68365;SDS011;55283;51.466;5.478;2022-08-01T13:16:45;6.43;;;1.55;;
68365;SDS011;55283;51.466;5.478;2022-08-01T13:19:12;2.57;;;1.50;;
68365;SDS011;55283;51.466;5.478;2022-08-01T13:21:52;2.72;;;1.67;;
68365;SDS011;55283;51.466;5.478;2022-08-01T13:24:23;4.63;;;1.52;;
68365;SDS011;55283;51.466;5.478;2022-08-01T13:29:22;2.05;;;1.50;;
68365;SDS011;55283;51.466;5.478;2022-08-01T13:31:54;3.70;;;1.60;;
68365;SDS011;55283;51.466;5.478;2022-08-01T13:34:30;4.23;;;1.67;;
68365;SDS011;55283;51.466;5.478;2022-08-01T13:37:00;3.70;;;1.67;;
68365;SDS011;55283;51.466;5.478;2022-08-01T13:39:27;2.83;;;1.65;;
68365;SDS011;55283;51.466;5.478;2022-08-01T13:42:13;4.23;;;1.83;;
68365;SDS011;55283;51.466;5.478;2022-08-01T13:44:40;4.00;;;1.60;;
68365;SDS011;55283;51.466;5.478;2022-08-01T13:47:06;3.42;;;1.80;;
68365;SDS011;55283;51.466;5.478;2022-08-01T13:49:33;4.40;;;1.73;;
68365;SDS011;55283;51.466;5.478;2022-08-01T13:51:59;2.33;;;1.60;;
68365;SDS011;55283;51.466;5.478;2022-08-01T13:54:25;3.22;;;1.60;;
68365;SDS011;55283;51.466;5.478;2022-08-01T13:56:54;3.07;;;1.53;;
68365;SDS011;55283;51.466;5.478;2022-08-01T13:59:20;3.45;;;1.58;;
68365;SDS011;55283;51.466;5.478;2022-08-01T14:01:46;2.87;;;1.43;;
68365;SDS011;55283;51.466;5.478;2022-08-01T14:04:14;2.75;;;1.60;;
68365;SDS011;55283;51.466;5.478;2022-08-01T14:06:40;3.17;;;1.48;;
68365;SDS011;55283;51.466;5.478;2022-08-01T14:09:05;2.70;;;1.57;;
68365;SDS011;55283;51.466;5.478;2022-08-01T14:11:31;2.67;;;1.50;;
68365;SDS011;55283;51.466;5.478;2022-08-01T14:13:59;3.53;;;1.70;;
68365;SDS011;55283;51.466;5.478;2022-08-01T14:16:24;2.43;;;1.70;;
68365;SDS011;55283;51.466;5.478;2022-08-01T14:18:52;2.80;;;1.80;;
68365;SDS011;55283;51.466;5.478;2022-08-01T14:21:18;2.17;;;1.50;;
68365;SDS011;55283;51.466;5.478;2022-08-01T14:23:44;2.38;;;1.67;;
68365;SDS011;55283;51.466;5.478;2022-08-01T14:26:12;3.57;;;1.80;;
68365;SDS011;55283;51.466;5.478;2022-08-01T14:28:40;3.05;;;1.60;;
68365;SDS011;55283;51.466;5.478;2022-08-01T14:31:05;2.08;;;1.58;;
68365;SDS011;55283;51.466;5.478;2022-08-01T14:33:31;2.90;;;1.60;;
68365;SDS011;55283;51.466;5.478;2022-08-01T14:35:57;1.90;;;1.50;;
68365;SDS011;55283;51.466;5.478;2022-08-01T14:38:22;2.97;;;1.55;;
68365;SDS011;55283;51.466;5.478;2022-08-01T14:40:48;5.57;;;1.63;;
68365;SDS011;55283;51.466;5.478;2022-08-01T14:43:18;3.38;;;1.65;;
68365;SDS011;55283;51.466;5.478;2022-08-01T14:45:44;2.25;;;1.50;;
68365;SDS011;55283;51.466;5.478;2022-08-01T14:48:09;3.57;;;1.63;;
68365;SDS011;55283;51.466;5.478;2022-08-01T14:50:35;2.40;;;1.50;;
68365;SDS011;55283;51.466;5.478;2022-08-01T14:53:01;2.47;;;1.48;;
68365;SDS011;55283;51.466;5.478;2022-08-01T14:55:27;3.40;;;1.70;;
68365;SDS011;55283;51.466;5.478;2022-08-01T14:57:53;3.87;;;2.03;;
68365;SDS011;55283;51.466;5.478;2022-08-01T15:00:18;3.00;;;1.50;;
68365;SDS011;55283;51.466;5.478;2022-08-01T15:02:44;4.50;;;1.80;;
68365;SDS011;55283;51.466;5.478;2022-08-01T15:05:10;3.80;;;1.70;;
68365;SDS011;55283;51.466;5.478;2022-08-01T15:07:36;6.87;;;2.30;;
68365;SDS011;55283;51.466;5.478;2022-08-01T15:10:03;4.28;;;2.08;;
68365;SDS011;55283;51.466;5.478;2022-08-01T15:12:29;6.50;;;2.25;;
68365;SDS011;55283;51.466;5.478;2022-08-01T15:14:54;5.40;;;2.47;;
68365;SDS011;55283;51.466;5.478;2022-08-01T15:17:21;5.60;;;2.00;;
68365;SDS011;55283;51.466;5.478;2022-08-01T15:19:51;4.97;;;1.90;;
68365;SDS011;55283;51.466;5.478;2022-08-01T15:22:19;5.68;;;1.77;;
68365;SDS011;55283;51.466;5.478;2022-08-01T15:24:48;4.30;;;1.60;;